Weather at De Lesseps Field [CLOSED]

Public forecast

Using degrees Celsius for public forecast. Weather courtesy of forecast.io.

Closest aviation weather report (METAR) to De Lesseps Field

Closest report is Lester B. Pearson International Airport, 6.0 nm (11.1 km) WSW. Retrieved 2020/11/28 15:00 UTC (35 minutes ago):

CYYZ 281500Z 29015KT 15SM R24R/3500VP6000FT/N FEW060 05/M02 A3002 RMK SC1 SLP172

Closest aviation forecast (TAF) to De Lesseps Field

Closest forecast is Lester B. Pearson International Airport, 6.0 nm (11.1 km) WSW. Retrieved 2020/11/28 15:42 UTC (0 seconds ago):

TAF CYYZ 281439Z 2815/2918 29010G20KT P6SM FEW060 BECMG 2817/2819 25010G20KT BECMG 2821/2823 23010KT FM291600 22010G20KT P6SM FEW025 SCT240 RMK NXT FCST BY 281800Z